Pisek, ND (58273)

7:37 AM CDT on June 03, 2015 (GMT -0500)
Hoople nd | | Change Station
CLOSE
Current Station
Personal Weather Station
Location: Hoople, ND
Elevation: 870 ft
Nearby Weather Stations

Elev 870 ft 48.52 °N, 97.62 °W | Updated 13 minutes ago

Overcast
Overcast
49.4 °F
Feels Like 45 °F
N
10.0
Wind Variable Wind from NNW
Gusts 19.0 mph

Today
High -- | Low -- °F
--% Chance of Precip.
Yesterday
High -- | Low -- °F
Precip. -- in
5:33 AM 9:25 PM
Full, 99% visible
Pressure 29.81 in
Visibility 10.0 miles
Clouds Overcast 900 ft
Windchill 45 °F
Dew Point 44 °F
Humidity 80%
Rainfall 0.05 in
Snow Depth Not available.
UV 0 out of 12
Pollen 7.10 out of 12
Air Quality Not available.
Flu Activity Sporadic
SPECI KRDR 031216Z AUTO 01014G17KT 10SM -DZ OVC009 11/08 A2981 RMK AO2 DZB16

More Conditions Fewer Conditions

Pressure 29.81 in
Visibility 10.0 miles
Clouds Overcast 900 ft
Windchill 45 °F
Dew Point 44 °F
Humidity 80%
Rainfall 0.05 in
Snow Depth Not available.
UV 0 out of 12
Pollen 7.10 out of 12
Air Quality Not available.
Flu Activity Sporadic
SPECI KRDR 031216Z AUTO 01014G17KT 10SM -DZ OVC009 11/08 A2981 RMK AO2 DZB16

More Conditions Fewer Conditions

10-Day Weather Forecast

×

Almanac

Astronomy

Jun. 03, 2015 Rise Set
Actual Time
Civil Twilight
Nautical Twilight
Astronomical Twilight
Moon
Length of Visible Light
Length of Day
Tomorrow will be .
, % of the Moon is Illuminated

Today's Extremes

State Highs State Lows

Community

WunderPhotos

Upload Photos

1,826,207 photos uploaded!

WunderBlogs® & News

Nearby

Air Quality

  Air Quality AQ Index Pollutant
Not available.

Snow Depth

Station Depth Elevation

Earthquake Activity

City Distance Mag. Time & Date
Minimum magnitude displayed is 2.5.

Coastal Water Temperatures

Place Temperature

Stations

Nearby Weather Stations

Station Location Temp. Windchill Dew Point Humidity Wind Precip. Elev Updated Type